Time;durP1;ratioP1;P1;durP2;ratioP2;P2;SDS_P1;SDS_P2;PMS_P1;PMS_P2;Temp;Humidity;BMP_temperature;BMP_pressure;BME280_temperature;BME280_humidity;BME280_pressure;Samples;Min_cycle;Max_cycle;Signal;HPM_P1;HPM_P2
2023/03/08 00:00:51;;;;;;;4.35;0.85;;;1.00;83.20;;;;;;5045394;28;20491;-76
2023/03/08 00:03:18;;;;;;;4.07;0.90;;;1.00;83.10;;;;;;5047283;28;20133;-76
2023/03/08 00:46:52;;;;;;;3.92;0.90;;;0.80;83.20;;;;;;5042294;28;20404;-76
2023/03/08 00:49:19;;;;;;;4.38;1.10;;;0.80;83.20;;;;;;5031596;28;20053;-76
2023/03/08 00:51:46;;;;;;;3.07;1.00;;;0.80;83.20;;;;;;5029831;28;20052;-76
2023/03/08 00:54:13;;;;;;;4.25;0.90;;;0.80;83.30;;;;;;5020049;28;20544;-76
2023/03/08 00:56:40;;;;;;;3.55;1.20;;;0.80;83.40;;;;;;5031608;28;20049;-76
2023/03/08 00:59:08;;;;;;;3.72;1.00;;;0.80;83.40;;;;;;5059405;28;20341;-76
2023/03/08 01:01:35;;;;;;;3.40;0.70;;;0.80;83.40;;;;;;5029295;28;20740;-76
2023/03/08 01:04:03;;;;;;;4.77;1.40;;;0.80;83.40;;;;;;5025534;28;20054;-76
2023/03/08 01:06:30;;;;;;;3.63;1.02;;;0.80;83.50;;;;;;5041362;28;20061;-76
2023/03/08 01:08:57;;;;;;;4.28;1.20;;;0.80;83.60;;;;;;5028903;28;20514;-76
2023/03/08 01:11:26;;;;;;;4.45;1.08;;;0.80;83.60;;;;;;5031886;28;20085;-76
2023/03/08 01:13:54;;;;;;;5.22;1.25;;;0.80;83.60;;;;;;5043599;28;20667;-76
2023/03/08 01:16:23;;;;;;;4.30;1.20;;;0.80;83.60;;;;;;5015215;28;20128;-76
2023/03/08 01:18:51;;;;;;;4.07;1.23;;;0.70;83.50;;;;;;5039418;28;20052;-76
2023/03/08 01:21:22;;;;;;;3.80;1.20;;;0.70;83.50;;;;;;5042331;28;20104;-76
2023/03/08 01:23:49;;;;;;;4.28;1.20;;;0.70;83.50;;;;;;5040096;28;20064;-76
2023/03/08 01:26:17;;;;;;;5.38;1.17;;;0.70;83.60;;;;;;5047248;28;20061;-76
2023/03/08 01:28:45;;;;;;;4.27;1.30;;;0.70;83.60;;;;;;5048863;28;20061;-76
2023/03/08 01:31:14;;;;;;;5.72;1.85;;;0.60;83.50;;;;;;5031014;28;20224;-76
2023/03/08 01:33:41;;;;;;;4.72;1.77;;;0.60;83.50;;;;;;5044882;28;20054;-76
2023/03/08 01:36:10;;;;;;;5.60;2.10;;;0.60;83.50;;;;;;5012472;28;20050;-76
2023/03/08 01:38:40;;;;;;;5.57;2.33;;;0.60;83.60;;;;;;5046201;28;20138;-76
2023/03/08 01:41:09;;;;;;;5.20;2.27;;;0.60;83.60;;;;;;5039374;28;20538;-76
2023/03/08 01:43:38;;;;;;;5.57;2.35;;;0.60;83.50;;;;;;5031155;28;20046;-76
2023/03/08 01:46:15;;;;;;;5.38;2.53;;;0.60;83.60;;;;;;5028876;28;20503;-76
2023/03/08 01:48:48;;;;;;;5.85;2.50;;;0.60;83.60;;;;;;5030848;28;20231;-76
2023/03/08 01:51:22;;;;;;;7.40;2.70;;;0.60;83.70;;;;;;5035130;28;20065;-76
2023/03/08 01:53:51;;;;;;;5.60;2.63;;;0.60;83.70;;;;;;5031433;28;20144;-76
2023/03/08 01:56:20;;;;;;;6.70;2.80;;;0.60;83.70;;;;;;5045867;28;20056;-76
2023/03/08 01:58:49;;;;;;;6.35;2.47;;;0.50;83.70;;;;;;5044261;28;20053;-76
2023/03/08 02:01:18;;;;;;;6.07;2.50;;;0.50;83.70;;;;;;5039055;28;20049;-76
2023/03/08 02:03:46;;;;;;;7.30;2.75;;;0.50;83.70;;;;;;5025259;28;20081;-76
2023/03/08 02:06:16;;;;;;;7.70;3.10;;;0.50;83.70;;;;;;5045203;28;20045;-76
2023/03/08 02:08:44;;;;;;;6.53;2.80;;;0.50;83.70;;;;;;5042505;28;20061;-76
2023/03/08 02:11:14;;;;;;;7.35;2.92;;;0.50;83.60;;;;;;5037726;28;20053;-76
2023/03/08 02:13:42;;;;;;;8.93;4.20;;;0.50;83.70;;;;;;5029299;28;20280;-76
2023/03/08 02:16:12;;;;;;;8.30;3.95;;;0.50;83.80;;;;;;5030889;28;20400;-76
2023/03/08 02:18:50;;;;;;;8.10;4.07;;;0.50;83.70;;;;;;5039953;28;20533;-76
2023/03/08 02:21:17;;;;;;;9.02;4.20;;;0.50;83.70;;;;;;5031737;28;20045;-76
2023/03/08 02:23:45;;;;;;;8.27;3.95;;;0.50;83.80;;;;;;5047326;28;20049;-76
2023/03/08 02:26:12;;;;;;;10.38;4.35;;;0.50;83.80;;;;;;5026607;28;20496;-76
2023/03/08 02:28:39;;;;;;;9.60;4.85;;;0.50;83.90;;;;;;5040416;28;20073;-76
2023/03/08 02:31:06;;;;;;;10.10;4.53;;;0.40;83.90;;;;;;5045118;28;20080;-76
2023/03/08 02:33:33;;;;;;;13.38;5.30;;;0.40;83.90;;;;;;5030761;28;20084;-76
2023/03/08 02:36:01;;;;;;;8.90;4.53;;;0.40;83.90;;;;;;5027850;28;20108;-76
2023/03/08 02:38:29;;;;;;;10.15;4.97;;;0.40;83.90;;;;;;5038098;28;20053;-76
2023/03/08 02:40:59;;;;;;;8.13;4.65;;;0.40;83.90;;;;;;5038674;28;20401;-76
2023/03/08 02:43:26;;;;;;;8.43;4.60;;;0.40;84.00;;;;;;5025798;28;20132;-76
2023/03/08 02:45:53;;;;;;;9.70;4.88;;;0.30;84.00;;;;;;5045552;28;20088;-76
2023/03/08 02:48:20;;;;;;;9.50;5.10;;;0.30;84.00;;;;;;5028146;28;20084;-76
2023/03/08 02:50:47;;;;;;;8.63;4.13;;;0.30;84.00;;;;;;5026697;28;20116;-76
2023/03/08 02:53:16;;;;;;;9.25;4.97;;;0.30;84.00;;;;;;5045698;28;20526;-76
2023/03/08 02:55:44;;;;;;;10.00;5.00;;;0.30;84.00;;;;;;5024123;28;20089;-76
2023/03/08 02:58:14;;;;;;;7.82;4.60;;;0.30;84.00;;;;;;5028939;28;20593;-76
2023/03/08 03:00:41;;;;;;;9.70;5.22;;;0.30;84.00;;;;;;5041691;28;20156;-76
2023/03/08 03:03:08;;;;;;;9.00;5.00;;;0.30;84.10;;;;;;5038563;28;20049;-76
2023/03/08 03:05:39;;;;;;;9.48;4.93;;;0.30;84.00;;;;;;5038959;28;20748;-76
2023/03/08 03:08:07;;;;;;;11.70;5.33;;;0.30;84.00;;;;;;5027044;28;20062;-76
2023/03/08 03:10:35;;;;;;;9.60;4.82;;;0.30;84.10;;;;;;5015293;28;20124;-76
2023/03/08 03:13:02;;;;;;;10.75;5.53;;;0.30;84.00;;;;;;5026776;28;20057;-76
2023/03/08 03:15:32;;;;;;;8.60;4.70;;;0.30;84.10;;;;;;5034237;28;20077;-76
2023/03/08 03:18:00;;;;;;;11.82;5.85;;;0.30;84.10;;;;;;5026801;28;20531;-76
2023/03/08 03:20:27;;;;;;;9.13;5.30;;;0.30;84.20;;;;;;5019430;28;20196;-76
2023/03/08 03:22:54;;;;;;;11.52;5.93;;;0.30;84.20;;;;;;5022973;28;20049;-76
2023/03/08 03:25:27;;;;;;;10.05;5.57;;;0.30;84.20;;;;;;5023101;28;20068;-76
2023/03/08 03:27:55;;;;;;;9.98;5.03;;;0.20;84.20;;;;;;5045814;28;20042;-76
2023/03/08 03:30:24;;;;;;;7.90;4.82;;;0.20;84.20;;;;;;5028181;28;20049;-76
2023/03/08 03:32:53;;;;;;;10.53;5.53;;;0.20;84.30;;;;;;5044006;28;20061;-76
2023/03/08 03:35:25;;;;;;;10.10;5.00;;;0.20;84.30;;;;;;5026318;28;20555;-76
2023/03/08 03:37:52;;;;;;;11.63;5.13;;;0.20;84.30;;;;;;5026912;28;20057;-76
2023/03/08 03:40:20;;;;;;;8.43;4.78;;;0.20;84.30;;;;;;5042582;28;20050;-76
2023/03/08 03:42:53;;;;;;;8.70;4.38;;;0.20;84.30;;;;;;5024833;28;20054;-76
2023/03/08 03:45:20;;;;;;;7.23;4.33;;;0.20;84.30;;;;;;5023897;28;20112;-76
2023/03/08 03:47:49;;;;;;;9.40;4.80;;;0.20;84.20;;;;;;5029525;28;20050;-76
2023/03/08 03:50:18;;;;;;;10.07;5.45;;;0.20;84.20;;;;;;5022347;28;20050;-76
2023/03/08 03:52:51;;;;;;;8.52;4.93;;;0.20;84.30;;;;;;5026178;28;20662;-76
2023/03/08 03:55:18;;;;;;;9.07;4.43;;;0.20;84.20;;;;;;5042044;28;20530;-76
2023/03/08 03:57:46;;;;;;;8.57;4.70;;;0.20;84.20;;;;;;5046075;28;20512;-76
2023/03/08 04:00:17;;;;;;;8.20;4.65;;;0.10;84.20;;;;;;5027512;28;20053;-76
2023/03/08 04:02:52;;;;;;;9.20;4.45;;;0.10;84.20;;;;;;5043329;28;20104;-76
2023/03/08 04:05:21;;;;;;;9.95;4.55;;;0.10;84.20;;;;;;5029907;28;20057;-76
2023/03/08 04:07:52;;;;;;;8.38;4.38;;;0.10;84.10;;;;;;5026480;28;20061;-76
2023/03/08 04:10:21;;;;;;;9.00;4.20;;;0.00;84.10;;;;;;5028376;28;20057;-76
2023/03/08 04:12:51;;;;;;;6.82;4.43;;;0.00;84.20;;;;;;5027120;28;20124;-76
2023/03/08 04:15:20;;;;;;;8.93;4.38;;;0.00;84.20;;;;;;5026454;28;20487;-76
2023/03/08 04:17:47;;;;;;;10.00;4.75;;;0.10;84.30;;;;;;5024454;28;20076;-76
2023/03/08 04:20:14;;;;;;;8.45;4.70;;;0.10;84.20;;;;;;5025540;28;20503;-76
2023/03/08 04:22:48;;;;;;;9.23;4.70;;;0.10;84.20;;;;;;5032309;28;20108;-76
2023/03/08 04:25:22;;;;;;;9.00;5.22;;;0.10;84.20;;;;;;5024269;28;20049;-76
2023/03/08 04:27:55;;;;;;;8.88;4.50;;;0.10;84.30;;;;;;5040859;28;20084;-76
2023/03/08 04:30:22;;;;;;;8.38;4.50;;;0.10;84.20;;;;;;5029306;28;20049;-76
2023/03/08 04:32:50;;;;;;;11.05;5.32;;;0.00;84.30;;;;;;5045838;28;20057;-76
2023/03/08 04:35:17;;;;;;;8.77;4.53;;;0.00;84.20;;;;;;5046526;28;20554;-76
2023/03/08 04:37:48;;;;;;;8.48;4.78;;;0.00;84.20;;;;;;5029275;28;20524;-76
2023/03/08 04:40:17;;;;;;;12.10;5.07;;;0.00;84.20;;;;;;5019907;28;20053;-76
2023/03/08 04:42:51;;;;;;;8.48;4.68;;;0.00;84.10;;;;;;5043994;28;20451;-76
2023/03/08 04:45:23;;;;;;;7.75;4.55;;;0.00;84.10;;;;;;5031973;28;20120;-76
2023/03/08 04:47:52;;;;;;;7.47;4.50;;;0.00;84.00;;;;;;5043493;28;20092;-76
2023/03/08 04:50:20;;;;;;;8.00;4.30;;;0.00;84.10;;;;;;5029537;28;20050;-76
2023/03/08 04:52:49;;;;;;;7.68;4.68;;;0.00;84.00;;;;;;5029895;28;20060;-77
2023/03/08 04:55:16;;;;;;;7.32;4.15;;;0.00;84.00;;;;;;5044213;28;20563;-76
2023/03/08 04:57:45;;;;;;;9.15;4.47;;;0.00;84.00;;;;;;5031266;28;20037;-77
2023/03/08 05:00:13;;;;;;;6.83;4.37;;;0.00;83.90;;;;;;5043790;28;20046;-76
2023/03/08 05:02:42;;;;;;;8.07;4.40;;;0.00;84.00;;;;;;5027914;28;20046;-76
2023/03/08 05:05:14;;;;;;;8.43;4.55;;;0.00;83.90;;;;;;5030791;28;20498;-76
2023/03/08 05:07:42;;;;;;;8.35;4.55;;;-0.10;83.90;;;;;;5039582;28;20105;-76
2023/03/08 05:10:11;;;;;;;8.93;4.72;;;0.00;83.90;;;;;;5028934;28;20056;-76
2023/03/08 05:12:38;;;;;;;9.10;5.43;;;0.00;83.90;;;;;;5048279;28;20073;-76
2023/03/08 05:15:06;;;;;;;7.25;4.32;;;0.00;84.00;;;;;;5025491;28;20111;-76
2023/03/08 05:17:33;;;;;;;8.85;4.70;;;0.00;84.00;;;;;;5044843;28;20088;-76
2023/03/08 05:20:00;;;;;;;8.65;4.53;;;-0.10;83.90;;;;;;5034964;28;20537;-76
2023/03/08 05:22:33;;;;;;;7.47;4.60;;;-0.10;83.90;;;;;;5022057;28;20050;-75
2023/03/08 05:25:00;;;;;;;9.10;4.67;;;-0.10;83.80;;;;;;5021817;28;20053;-76
2023/03/08 05:27:32;;;;;;;8.57;4.55;;;-0.10;83.80;;;;;;5029613;28;20810;-76
2023/03/08 05:29:59;;;;;;;9.85;4.35;;;-0.10;83.80;;;;;;5024611;28;20046;-76
2023/03/08 05:32:30;;;;;;;7.78;4.50;;;-0.10;83.70;;;;;;5023197;28;20076;-76
2023/03/08 05:34:57;;;;;;;7.70;4.25;;;-0.10;83.70;;;;;;5028053;28;20112;-76
2023/03/08 05:37:31;;;;;;;9.87;4.37;;;-0.10;83.70;;;;;;5022816;28;20077;-76
2023/03/08 05:40:04;;;;;;;9.63;4.55;;;-0.10;83.70;;;;;;5028026;28;20137;-76
2023/03/08 05:42:34;;;;;;;8.05;4.50;;;-0.10;83.70;;;;;;5049226;28;20672;-76
2023/03/08 05:45:02;;;;;;;8.32;4.70;;;-0.10;83.70;;;;;;5029547;28;20543;-76
2023/03/08 05:47:34;;;;;;;8.43;4.15;;;-0.10;83.70;;;;;;5029917;28;20443;-76
2023/03/08 05:50:01;;;;;;;8.77;4.07;;;-0.10;83.70;;;;;;5018962;28;20045;-75
2023/03/08 05:52:31;;;;;;;8.95;4.50;;;-0.10;83.60;;;;;;5029714;28;20202;-76
2023/03/08 05:54:59;;;;;;;8.15;4.10;;;-0.10;83.60;;;;;;5027418;28;20054;-76
2023/03/08 05:57:27;;;;;;;7.85;4.63;;;-0.10;83.50;;;;;;5047117;28;20053;-76
2023/03/08 05:59:55;;;;;;;7.85;3.95;;;-0.10;83.60;;;;;;5026983;28;20054;-76
2023/03/08 06:02:23;;;;;;;8.53;4.00;;;0.00;83.50;;;;;;5049134;28;20104;-76
2023/03/08 06:04:54;;;;;;;7.47;4.13;;;0.00;83.40;;;;;;5044547;28;20060;-76
2023/03/08 06:07:24;;;;;;;8.38;4.28;;;0.00;83.20;;;;;;5043248;28;20129;-76
2023/03/08 06:10:01;;;;;;;6.43;4.03;;;0.00;83.20;;;;;;5019534;28;20058;-76
2023/03/08 06:12:28;;;;;;;8.02;4.68;;;0.00;83.10;;;;;;5047180;28;20129;-76
2023/03/08 06:15:01;;;;;;;6.73;4.33;;;-0.10;83.10;;;;;;5029093;28;20072;-76
2023/03/08 06:17:33;;;;;;;8.50;4.60;;;-0.10;83.10;;;;;;5033539;28;20045;-76
2023/03/08 06:20:00;;;;;;;9.30;4.68;;;-0.10;83.10;;;;;;5029434;28;20054;-76
2023/03/08 06:22:27;;;;;;;9.85;5.00;;;-0.10;83.10;;;;;;5044471;28;20049;-77
2023/03/08 06:24:55;;;;;;;10.80;4.72;;;-0.10;83.10;;;;;;5024482;28;20060;-76
2023/03/08 06:27:29;;;;;;;9.03;4.57;;;0.00;83.00;;;;;;5027008;28;20053;-76
2023/03/08 06:30:01;;;;;;;8.27;4.22;;;0.00;83.00;;;;;;5029456;28;20057;-76
2023/03/08 06:32:31;;;;;;;7.68;4.45;;;0.00;83.10;;;;;;5030276;28;20077;-76
2023/03/08 06:34:59;;;;;;;9.98;5.05;;;0.00;83.00;;;;;;5019424;28;20050;-76
2023/03/08 06:37:26;;;;;;;8.70;4.38;;;0.00;83.00;;;;;;5046813;28;20594;-77
2023/03/08 06:39:53;;;;;;;9.87;4.67;;;0.00;82.90;;;;;;5028990;28;20115;-76
2023/03/08 06:42:20;;;;;;;9.18;4.70;;;0.00;82.90;;;;;;5023614;28;20148;-76
2023/03/08 06:44:48;;;;;;;7.50;4.70;;;0.00;82.80;;;;;;5022390;28;20125;-76
2023/03/08 06:47:17;;;;;;;7.75;4.70;;;0.00;82.70;;;;;;5047255;28;20033;-77
2023/03/08 06:49:44;;;;;;;7.72;4.60;;;0.00;82.60;;;;;;5038715;28;20721;-76
2023/03/08 06:52:11;;;;;;;7.97;5.00;;;0.00;82.70;;;;;;5022697;28;20089;-76
2023/03/08 06:54:38;;;;;;;8.85;4.72;;;0.00;82.70;;;;;;5041114;28;20059;-76
2023/03/08 06:57:06;;;;;;;9.25;5.13;;;0.00;82.70;;;;;;5045689;28;20264;-76
2023/03/08 06:59:33;;;;;;;8.90;5.07;;;0.00;82.70;;;;;;5047947;28;20093;-76
2023/03/08 07:02:00;;;;;;;10.00;5.35;;;0.00;82.60;;;;;;5029446;28;20525;-76
2023/03/08 07:04:29;;;;;;;9.80;5.07;;;0.00;82.60;;;;;;5048827;28;20108;-76
2023/03/08 07:06:58;;;;;;;7.95;5.00;;;0.00;82.60;;;;;;5044665;28;20140;-76
2023/03/08 07:09:25;;;;;;;7.60;4.50;;;0.00;82.60;;;;;;5045336;28;20061;-76
2023/03/08 07:11:52;;;;;;;8.32;4.57;;;0.00;82.60;;;;;;5043107;28;20511;-77
2023/03/08 07:14:19;;;;;;;7.38;4.60;;;0.00;82.60;;;;;;5042413;28;20159;-76
2023/03/08 07:16:47;;;;;;;8.80;4.60;;;0.00;82.60;;;;;;5044232;28;20136;-76
2023/03/08 07:19:14;;;;;;;7.50;4.03;;;0.00;82.70;;;;;;5044056;28;20144;-77
2023/03/08 07:21:43;;;;;;;9.98;4.75;;;0.00;82.70;;;;;;5041023;28;20761;-77
2023/03/08 07:24:10;;;;;;;8.82;4.53;;;0.00;82.70;;;;;;5039331;28;20108;-77
2023/03/08 07:26:37;;;;;;;8.38;4.60;;;0.00;82.70;;;;;;5039369;28;20069;-77
2023/03/08 07:29:04;;;;;;;7.07;4.23;;;0.10;82.70;;;;;;5036579;28;20155;-76
2023/03/08 07:31:34;;;;;;;7.65;4.30;;;0.10;82.60;;;;;;5018302;28;20148;-77
2023/03/08 07:34:02;;;;;;;7.38;3.97;;;0.10;82.70;;;;;;5037992;28;20131;-77
2023/03/08 07:36:29;;;;;;;7.53;4.32;;;0.20;82.70;;;;;;5039096;28;20145;-76
2023/03/08 07:38:57;;;;;;;6.72;4.15;;;0.20;82.70;;;;;;5035794;28;20076;-77
2023/03/08 07:41:27;;;;;;;6.67;4.00;;;0.20;82.80;;;;;;5039768;28;20076;-77
2023/03/08 07:43:54;;;;;;;7.85;4.18;;;0.20;82.80;;;;;;5022614;28;20057;-77
2023/03/08 07:46:24;;;;;;;7.43;4.20;;;0.30;82.80;;;;;;5042541;28;20062;-77
2023/03/08 07:48:52;;;;;;;7.93;4.25;;;0.30;82.90;;;;;;5032889;28;20638;-77
2023/03/08 07:51:19;;;;;;;7.00;4.63;;;0.30;82.90;;;;;;5044321;28;20199;-76
2023/03/08 07:53:46;;;;;;;7.67;4.00;;;0.30;83.00;;;;;;5041741;28;20053;-77
2023/03/08 07:56:14;;;;;;;6.60;4.22;;;0.30;83.00;;;;;;5039483;28;20146;-77
2023/03/08 07:58:41;;;;;;;7.53;4.32;;;0.30;83.00;;;;;;5042492;28;20160;-77
2023/03/08 08:01:09;;;;;;;7.78;4.18;;;0.40;83.10;;;;;;5025820;28;20054;-77
2023/03/08 08:03:37;;;;;;;8.38;4.78;;;0.40;83.20;;;;;;5037194;28;20141;-77
2023/03/08 08:06:04;;;;;;;8.00;4.50;;;0.40;83.20;;;;;;5043116;28;20054;-77
2023/03/08 08:08:32;;;;;;;8.95;4.90;;;0.40;83.20;;;;;;5040193;28;20191;-78
2023/03/08 08:10:59;;;;;;;7.57;4.95;;;0.40;83.30;;;;;;5038265;28;20579;-77
2023/03/08 08:13:27;;;;;;;7.80;4.90;;;0.40;83.30;;;;;;5040821;28;20111;-77
2023/03/08 08:15:59;;;;;;;9.73;5.22;;;0.50;83.40;;;;;;5025140;28;20045;-77
2023/03/08 08:18:26;;;;;;;8.37;4.70;;;0.50;83.40;;;;;;5030591;28;20048;-75
2023/03/08 08:21:00;;;;;;;9.20;4.60;;;0.50;83.40;;;;;;5045031;28;20058;-77
2023/03/08 08:23:27;;;;;;;9.10;5.00;;;0.50;83.40;;;;;;5043175;28;20132;-77
2023/03/08 08:25:54;;;;;;;8.18;4.65;;;0.50;83.30;;;;;;5045583;28;20144;-76
2023/03/08 08:28:22;;;;;;;7.68;5.00;;;0.60;83.40;;;;;;5048419;28;20053;-76
2023/03/08 08:30:57;;;;;;;9.20;4.83;;;0.50;83.30;;;;;;5045157;28;20127;-77
2023/03/08 08:33:24;;;;;;;7.97;4.80;;;0.50;83.30;;;;;;5044513;28;20136;-77
2023/03/08 08:35:51;;;;;;;9.18;5.00;;;0.50;83.30;;;;;;5040696;28;20278;-77
2023/03/08 08:38:18;;;;;;;11.35;5.80;;;0.50;83.40;;;;;;5047246;28;20575;-77
2023/03/08 08:40:45;;;;;;;9.68;5.70;;;0.50;83.40;;;;;;5043464;28;20049;-77
2023/03/08 08:43:12;;;;;;;13.90;6.27;;;0.50;83.30;;;;;;5035512;28;20140;-78
2023/03/08 08:45:43;;;;;;;10.07;5.75;;;0.50;83.50;;;;;;5040863;28;20045;-77
2023/03/08 08:48:12;;;;;;;11.52;6.47;;;0.50;83.50;;;;;;5045796;28;20045;-78
2023/03/08 08:50:39;;;;;;;12.40;6.68;;;0.60;83.70;;;;;;5034077;28;20128;-79
2023/03/08 08:53:06;;;;;;;12.48;6.97;;;0.60;83.80;;;;;;5037089;28;20062;-76
2023/03/08 08:55:33;;;;;;;12.23;6.23;;;0.60;83.90;;;;;;5037904;28;20470;-77
2023/03/08 08:58:01;;;;;;;11.82;7.13;;;0.60;83.90;;;;;;5039538;28;20107;-76
2023/03/08 09:00:28;;;;;;;12.98;7.43;;;0.60;84.00;;;;;;5044672;28;20053;-76
2023/03/08 09:02:55;;;;;;;15.07;7.50;;;0.60;84.00;;;;;;5044988;28;20112;-76
2023/03/08 09:05:24;;;;;;;12.73;7.43;;;0.60;83.90;;;;;;5045812;28;22024;-76
2023/03/08 09:07:53;;;;;;;15.87;8.00;;;0.60;83.90;;;;;;5045938;28;20101;-76
2023/03/08 09:10:20;;;;;;;15.95;8.57;;;0.60;83.90;;;;;;5044206;28;20091;-76
2023/03/08 09:12:47;;;;;;;13.38;7.90;;;0.60;84.00;;;;;;5039165;28;20057;-76
2023/03/08 09:15:14;;;;;;;13.93;7.55;;;0.60;84.10;;;;;;5023244;28;20088;-75
2023/03/08 09:17:41;;;;;;;14.02;7.70;;;0.70;84.30;;;;;;5045731;28;20057;-75
2023/03/08 09:20:10;;;;;;;14.80;7.50;;;0.70;84.30;;;;;;5044650;28;20606;-77
2023/03/08 09:22:40;;;;;;;12.82;6.93;;;0.80;84.50;;;;;;5036874;28;20551;-77
2023/03/08 09:25:09;;;;;;;11.80;6.55;;;0.80;84.60;;;;;;5037698;28;20069;-76
2023/03/08 09:27:39;;;;;;;12.70;7.53;;;0.80;84.70;;;;;;5025485;28;20049;-77
2023/03/08 09:30:09;;;;;;;12.82;7.85;;;0.80;84.70;;;;;;5044628;28;20063;-77
2023/03/08 09:32:36;;;;;;;13.07;7.30;;;0.80;84.60;;;;;;5062129;28;20132;-76
2023/03/08 09:35:04;;;;;;;13.27;7.30;;;0.80;84.70;;;;;;5040803;28;20547;-76
2023/03/08 09:37:31;;;;;;;15.48;8.13;;;0.80;84.80;;;;;;5043062;28;20053;-76
2023/03/08 09:40:00;;;;;;;13.68;7.65;;;0.80;84.80;;;;;;5043399;28;20643;-76
2023/03/08 09:42:31;;;;;;;13.70;7.18;;;0.90;84.80;;;;;;5046182;28;20179;-77
2023/03/08 09:45:06;;;;;;;15.00;8.03;;;0.90;85.00;;;;;;5045521;28;20151;-76
2023/03/08 09:47:39;;;;;;;14.70;7.90;;;1.00;85.00;;;;;;5042766;28;20555;-77
2023/03/08 09:50:31;;;;;;;14.93;8.40;;;1.00;85.10;;;;;;5042486;28;20068;-75
2023/03/08 09:53:02;;;;;;;17.77;8.45;;;1.00;85.10;;;;;;5038282;28;20059;-75
2023/03/08 09:55:33;;;;;;;16.00;8.52;;;1.00;85.10;;;;;;5042868;28;20546;-75
2023/03/08 09:58:04;;;;;;;15.77;8.37;;;1.00;85.20;;;;;;5042812;28;20068;-76
2023/03/08 10:00:33;;;;;;;15.60;8.95;;;1.10;85.30;;;;;;5040754;28;20668;-75
2023/03/08 10:03:17;;;;;;;15.38;8.80;;;1.10;85.30;;;;;;5041875;28;20570;-76
2023/03/08 10:05:51;;;;;;;14.63;8.48;;;1.20;85.30;;;;;;5042279;28;20071;-77
2023/03/08 10:08:23;;;;;;;13.95;7.63;;;1.20;85.40;;;;;;5044114;28;20061;-76
2023/03/08 10:10:59;;;;;;;12.60;7.03;;;1.20;85.50;;;;;;5042029;28;20081;-76
2023/03/08 10:13:32;;;;;;;12.57;7.35;;;1.30;85.40;;;;;;5044112;28;20528;-76
2023/03/08 10:16:06;;;;;;;13.00;7.45;;;1.40;85.40;;;;;;5044172;28;20145;-77
2023/03/08 10:18:38;;;;;;;12.77;7.30;;;1.40;85.50;;;;;;5043350;28;20183;-77
2023/03/08 10:21:10;;;;;;;15.13;8.23;;;1.40;85.50;;;;;;5042667;28;20514;-76
2023/03/08 10:23:40;;;;;;;13.67;7.83;;;1.50;85.50;;;;;;5043604;28;20133;-76
2023/03/08 10:26:12;;;;;;;13.45;7.38;;;1.50;85.50;;;;;;5041304;28;20561;-76
2023/03/08 10:28:40;;;;;;;15.30;8.13;;;1.60;85.50;;;;;;5044514;28;20053;-77
2023/03/08 10:31:20;;;;;;;14.98;8.65;;;1.60;85.50;;;;;;5043009;28;20057;-77
2023/03/08 10:33:50;;;;;;;16.67;8.40;;;1.70;85.50;;;;;;5041211;28;20050;-77
2023/03/08 10:36:19;;;;;;;14.20;8.23;;;1.70;85.70;;;;;;5023179;28;20053;-77
2023/03/08 10:38:57;;;;;;;14.82;8.68;;;1.80;85.70;;;;;;5028437;28;20056;-77
2023/03/08 10:41:27;;;;;;;14.68;8.63;;;1.80;85.70;;;;;;5055825;28;20152;-75
2023/03/08 10:43:55;;;;;;;13.60;8.18;;;1.90;85.90;;;;;;5046665;28;20088;-77
2023/03/08 10:46:24;;;;;;;12.90;7.13;;;1.90;85.90;;;;;;5041213;28;20541;-76
2023/03/08 10:48:52;;;;;;;14.43;7.63;;;2.00;86.00;;;;;;5044721;28;20480;-76
2023/03/08 10:51:20;;;;;;;15.00;8.13;;;2.00;85.80;;;;;;5046171;28;20579;-75
2023/03/08 10:53:55;;;;;;;13.43;7.28;;;2.10;85.80;;;;;;5045319;28;20108;-75
2023/03/08 10:56:27;;;;;;;15.10;6.75;;;2.20;85.80;;;;;;5039429;28;20049;-76
2023/03/08 10:58:56;;;;;;;14.27;7.95;;;2.20;85.70;;;;;;5039337;28;20579;-76
2023/03/08 11:01:25;;;;;;;13.70;6.83;;;2.30;85.80;;;;;;5023963;28;20057;-76
2023/03/08 11:03:59;;;;;;;12.40;7.05;;;2.30;85.80;;;;;;5044764;28;20054;-76
2023/03/08 11:06:26;;;;;;;13.18;6.88;;;2.40;85.70;;;;;;5024687;28;20199;-76
2023/03/08 11:08:55;;;;;;;12.10;6.55;;;2.40;85.70;;;;;;5040595;28;20053;-76
2023/03/08 11:11:22;;;;;;;14.55;7.25;;;2.40;85.70;;;;;;5037387;28;20058;-76
2023/03/08 11:13:52;;;;;;;14.50;7.83;;;2.50;85.70;;;;;;5039024;28;20089;-79
2023/03/08 11:16:31;;;;;;;12.30;6.88;;;2.50;85.70;;;;;;5021807;28;20159;-76
2023/03/08 11:19:03;;;;;;;13.57;7.40;;;2.50;85.70;;;;;;5047053;28;20061;-77
2023/03/08 11:21:38;;;;;;;12.50;6.88;;;2.60;85.70;;;;;;5042002;28;20053;-76
2023/03/08 11:24:20;;;;;;;14.05;7.40;;;2.70;85.60;;;;;;5038683;28;20058;-77
2023/03/08 11:26:58;;;;;;;11.83;6.63;;;2.70;85.70;;;;;;5041041;28;20081;-77
2023/03/08 11:29:39;;;;;;;13.50;7.57;;;2.70;85.80;;;;;;5053835;28;20515;-77
2023/03/08 11:32:19;;;;;;;13.75;7.45;;;2.80;85.80;;;;;;5039179;28;20050;-77
2023/03/08 11:35:04;;;;;;;13.52;7.10;;;2.80;85.80;;;;;;5041309;28;20140;-77
2023/03/08 11:37:38;;;;;;;12.45;7.15;;;2.90;85.70;;;;;;5036478;28;20542;-78
2023/03/08 11:40:22;;;;;;;13.83;6.80;;;2.90;85.70;;;;;;5038347;28;20112;-78
2023/03/08 11:43:00;;;;;;;12.25;6.47;;;3.00;85.70;;;;;;5050476;28;20060;-77
2023/03/08 11:45:34;;;;;;;10.30;5.57;;;3.00;85.80;;;;;;5054965;28;20585;-77
2023/03/08 11:48:23;;;;;;;10.43;5.28;;;3.00;85.70;;;;;;5029095;28;20116;-77
2023/03/08 11:50:53;;;;;;;12.75;6.03;;;3.10;85.70;;;;;;5043028;28;20054;-77
2023/03/08 11:53:28;;;;;;;12.87;5.60;;;3.10;85.50;;;;;;5044602;28;20045;-76
2023/03/08 11:56:09;;;;;;;13.73;5.88;;;3.10;85.50;;;;;;5030217;28;20046;-76
2023/03/08 11:58:41;;;;;;;11.65;6.03;;;3.20;85.40;;;;;;5045255;28;20250;-76
2023/03/08 12:01:13;;;;;;;13.27;5.72;;;3.20;85.50;;;;;;5043455;28;20061;-76
2023/03/08 12:03:44;;;;;;;10.93;4.95;;;3.30;85.40;;;;;;5049782;28;20049;-77
2023/03/08 12:06:15;;;;;;;10.73;4.97;;;3.30;85.40;;;;;;5042216;28;20081;-77
2023/03/08 12:08:47;;;;;;;12.10;5.07;;;3.30;85.20;;;;;;5022931;28;20050;-77
2023/03/08 12:11:21;;;;;;;11.52;5.53;;;3.30;85.10;;;;;;5040709;28;20120;-76
2023/03/08 12:13:53;;;;;;;12.80;5.85;;;3.40;85.10;;;;;;5042276;28;20053;-77
2023/03/08 12:16:26;;;;;;;11.93;5.55;;;3.40;85.00;;;;;;5037924;28;20061;-77
2023/03/08 12:19:00;;;;;;;12.17;5.97;;;3.50;84.80;;;;;;5041853;28;20630;-77
2023/03/08 12:21:38;;;;;;;12.05;5.60;;;3.50;84.70;;;;;;5043312;28;20497;-77
2023/03/08 12:24:23;;;;;;;11.57;5.57;;;3.50;84.70;;;;;;5041933;28;20735;-77
2023/03/08 12:26:56;;;;;;;9.65;4.68;;;3.50;84.70;;;;;;5045179;28;20053;-77
2023/03/08 12:29:30;;;;;;;9.43;4.40;;;3.50;84.60;;;;;;5041320;28;20066;-77
2023/03/08 12:32:00;;;;;;;10.60;4.90;;;3.50;84.30;;;;;;5026644;28;20054;-78
2023/03/08 12:34:29;;;;;;;13.40;5.40;;;3.60;84.30;;;;;;5045003;28;20089;-77
2023/03/08 12:36:57;;;;;;;11.45;4.40;;;3.60;84.30;;;;;;5041441;28;20216;-77
2023/03/08 12:39:30;;;;;;;11.93;4.43;;;3.60;84.40;;;;;;5027309;28;20527;-77
2023/03/08 12:41:59;;;;;;;9.07;3.33;;;3.60;84.30;;;;;;5028202;28;20049;-77
2023/03/08 12:44:27;;;;;;;8.57;3.00;;;3.70;84.10;;;;;;5045485;28;20137;-77
2023/03/08 12:46:58;;;;;;;8.82;2.70;;;3.70;83.60;;;;;;5025868;28;20108;-77
2023/03/08 12:49:30;;;;;;;7.22;2.45;;;3.70;83.40;;;;;;5037538;28;20573;-77
2023/03/08 12:52:03;;;;;;;7.25;2.10;;;3.70;83.30;;;;;;5043851;28;20075;-76
2023/03/08 12:54:33;;;;;;;6.47;1.95;;;3.70;83.10;;;;;;5043362;28;20057;-75
2023/03/08 12:57:03;;;;;;;7.93;2.10;;;3.80;83.10;;;;;;5047541;28;20105;-76
2023/03/08 12:59:36;;;;;;;7.30;2.10;;;3.80;82.80;;;;;;5043119;28;20056;-75
2023/03/08 13:02:24;;;;;;;6.63;1.95;;;3.90;82.90;;;;;;5044719;28;20140;-75
2023/03/08 13:05:16;;;;;;;5.63;1.67;;;3.90;82.90;;;;;;5047325;28;20050;-75
2023/03/08 13:07:55;;;;;;;5.63;1.63;;;3.90;82.40;;;;;;5046291;28;20057;-75
2023/03/08 13:10:26;;;;;;;5.53;1.80;;;3.90;82.30;;;;;;5044209;28;20050;-75
2023/03/08 13:13:04;;;;;;;6.38;1.83;;;3.90;82.50;;;;;;5043395;28;20969;-75
2023/03/08 13:15:31;;;;;;;6.20;1.77;;;3.90;82.60;;;;;;5047184;28;20053;-74
2023/03/08 13:18:04;;;;;;;7.85;1.92;;;3.90;82.10;;;;;;5044396;28;20101;-75
2023/03/08 13:21:05;;;;;;;7.35;2.38;;;3.90;81.50;;;;;;5042756;28;20042;-75
2023/03/08 13:23:37;;;;;;;6.07;1.63;;;3.90;81.50;;;;;;5039784;28;20111;-75
2023/03/08 13:26:31;;;;;;;6.20;1.73;;;3.90;81.30;;;;;;5040342;28;20365;-75
2023/03/08 13:28:58;;;;;;;7.10;2.17;;;4.00;81.30;;;;;;5041860;28;20459;-75
2023/03/08 13:31:30;;;;;;;8.63;1.83;;;4.00;80.70;;;;;;5023682;28;20093;-75
2023/03/08 13:33:58;;;;;;;4.15;1.27;;;4.00;80.80;;;;;;5041661;28;20049;-75
2023/03/08 13:36:28;;;;;;;5.63;1.40;;;4.00;80.40;;;;;;5043543;28;20933;-75
2023/03/08 13:38:57;;;;;;;5.68;1.42;;;4.00;80.20;;;;;;5043273;28;20507;-76
2023/03/08 13:41:35;;;;;;;5.95;1.00;;;4.00;80.30;;;;;;5042825;28;20046;-75
2023/03/08 13:44:03;;;;;;;5.25;1.40;;;4.00;80.20;;;;;;5041169;28;20141;-75
2023/03/08 13:46:30;;;;;;;4.35;1.33;;;4.00;80.20;;;;;;5043477;28;20050;-75
2023/03/08 13:48:57;;;;;;;4.13;0.90;;;4.00;79.80;;;;;;5045308;28;20136;-75